Startpagina
METAR-TAF:

METAR-TAF

Vliegvelden :

Pyongyang, Noord-Korea

Sunan International Airport

breedte: 39-02N, lengte: 125-47E, hoogte: 36 m

METAR: ontbreekt

Tijdstip: 15:15 (06:45 UTC)

Verwachting

Dit bericht is 1 uur en het 45 minuten geleden gemaakt, om 05:00 UTC
Verwachting geldig van 22 om 06 UTC tot 23 om 06 UTC
Wind 8 kt uit het zuidoosten
Zicht 10 km of meer
Geheel bewolkt op 2300 ft
Tijdelijke
van 22 om 06 UTC tot 22 om 15 UTC
Zicht: 8000 m
Weinig wolken op 1700 ft, Cumulonimbus.
Geheel bewolkt op 2000 ft
lichte regenbuien

TAF: ZKPY 220500Z 2206/2306 13004MPS 9999 OVC023 TEMPO 2206/2215 8000 -SHRA FEW017CB OVC020

Waarnemingen en weersverwachtingen van meer dan 4000 vliegvelden (METAR en TAF).

De beschikbare stations zijn de gele en rode punten op de kaart.

Ga met uw muis naar het station om de naam te zien.

Klik dan om waarnemingen en weersverwachtingen te zien.

kaart wijzigen: klik op de groene knoppen met een zwart kruis om in te zoomen, op de groene knop met een streepje om uit te zoomen of op de groene pijlen voor aangrenzende kaarten.


METAR-TAF: